Aérodrome :
LOGIN :

S'inscrire | Disclaimer

   EN    FR    IT 

 










Légende :    VFR   VFR Marginal   IFR   IFR Intensif   IFR Très Intensif
Visi : 
Plafond : 
>= 8 km
>= 3000ft
5 à 8 km
1000 à 3000 ft
1500m à 5 km
500 à 1000 ft
800 à 1500m
200 à 500 ft
< 800m
< 200 ft
Symboles :   Orages  Brouillard  Fortes neiges  Fortes précipitations  Vent > 20 kt
SIGMETs :   Divers  Orages  Givrage  Turbulence  Onde Orograph.  Cendres Volcan.







- Altitude de l'aérodrome : 529 ft
- Code IATA : CHR
- Voir les cartes d'approche


LFLX - Chateauroux

DERNIER METAR :
  • 211100Z AUTO 17011KT 130V200 CAVOK 28/13 Q1012 NOSIG

METARs EXPIRÉS :
  • 211030Z AUTO 20011KT 170V240 CAVOK 27/13 Q1013 NOSIG
  • 211000Z AUTO 17009KT 120V210 CAVOK 26/13 Q1013 NOSIG
  • 210930Z AUTO 16009KT 120V200 CAVOK 25/13 Q1013 NOSIG
  • 210900Z AUTO 11007KT 080V160 CAVOK 23/13 Q1013 NOSIG
  • 210830Z AUTO 09008KT CAVOK 22/12 Q1014 NOSIG

TAF TAF LFLX
Valide du 21 à 06h jusqu'au 22 à 12h UTC


210500Z 2106/2212 13008KT CAVOK
PROB40
TEMPO 2115/2118 18015G30KT 4000 SHRA SCT045CB
PROB30
TEMPO 2203/2208 -SHRA SCT050TCU
BECMG 2208/2209 23010KT
TEMPO 2209/2211 24015G35KT 1500 TSRA BKN008 SCT020CB
Pas de NOTAMs connus pour ce terrain.



MET'MAP, la Météo Aéronautique d'un coup d'oeil ! - Copyright ORBIFLY Décembre 2007 - Disclaimer

ORBIFLY MET'MAP TEAM :

Programmation & Développement : Alexandra Zaïnal
Conception & Développement : Baudouin d'Aumeries
Co-Programmation & Développement : Marc-Olivier Méhu
Soutien technique & logistique : Manuel Goepfert

Contact : metmap@orbifly.com




SOURCES & CREDITS :

   NOAA